sensor_id;sensor_type;location;lat;lon;timestamp;P1;durP1;ratioP1;P2;durP2;ratioP2
20012;SDS011;10167;42.852;23.042;2024-01-25T00:01:42;0.30;;;0.30;;
20012;SDS011;10167;42.852;23.042;2024-01-25T00:04:14;0.57;;;0.40;;
20012;SDS011;10167;42.852;23.042;2024-01-25T00:06:43;0.40;;;0.40;;
20012;SDS011;10167;42.852;23.042;2024-01-25T00:09:13;1.60;;;1.50;;
20012;SDS011;10167;42.852;23.042;2024-01-25T00:11:42;1.08;;;0.98;;
20012;SDS011;10167;42.852;23.042;2024-01-25T00:14:12;0.25;;;0.25;;
20012;SDS011;10167;42.852;23.042;2024-01-25T00:16:42;0.82;;;0.65;;
20012;SDS011;10167;42.852;23.042;2024-01-25T00:19:11;0.47;;;0.47;;
20012;SDS011;10167;42.852;23.042;2024-01-25T00:21:43;2.53;;;1.23;;
20012;SDS011;10167;42.852;23.042;2024-01-25T00:24:13;7.80;;;1.30;;
20012;SDS011;10167;42.852;23.042;2024-01-25T00:26:43;1.35;;;0.60;;
20012;SDS011;10167;42.852;23.042;2024-01-25T00:29:13;1.33;;;1.33;;
20012;SDS011;10167;42.852;23.042;2024-01-25T00:31:42;0.77;;;0.77;;
20012;SDS011;10167;42.852;23.042;2024-01-25T00:34:12;1.02;;;0.90;;
20012;SDS011;10167;42.852;23.042;2024-01-25T00:36:45;0.95;;;0.90;;
20012;SDS011;10167;42.852;23.042;2024-01-25T00:39:15;0.60;;;0.60;;
20012;SDS011;10167;42.852;23.042;2024-01-25T00:41:45;1.15;;;1.00;;
20012;SDS011;10167;42.852;23.042;2024-01-25T00:44:19;1.20;;;1.20;;
20012;SDS011;10167;42.852;23.042;2024-01-25T00:46:50;1.40;;;1.33;;
20012;SDS011;10167;42.852;23.042;2024-01-25T00:49:21;1.60;;;1.50;;
20012;SDS011;10167;42.852;23.042;2024-01-25T00:51:54;0.90;;;0.90;;
20012;SDS011;10167;42.852;23.042;2024-01-25T00:54:28;2.35;;;1.38;;
20012;SDS011;10167;42.852;23.042;2024-01-25T00:56:59;0.30;;;0.30;;
20012;SDS011;10167;42.852;23.042;2024-01-25T00:59:29;0.60;;;0.35;;
20012;SDS011;10167;42.852;23.042;2024-01-25T01:02:00;0.30;;;0.30;;
20012;SDS011;10167;42.852;23.042;2024-01-25T01:04:36;1.35;;;1.15;;
20012;SDS011;10167;42.852;23.042;2024-01-25T01:07:17;1.38;;;0.82;;
20012;SDS011;10167;42.852;23.042;2024-01-25T01:09:47;0.52;;;0.52;;
20012;SDS011;10167;42.852;23.042;2024-01-25T01:12:17;0.65;;;0.30;;
20012;SDS011;10167;42.852;23.042;2024-01-25T01:14:46;2.53;;;1.75;;
20012;SDS011;10167;42.852;23.042;2024-01-25T01:17:15;0.68;;;0.68;;
20012;SDS011;10167;42.852;23.042;2024-01-25T01:19:45;3.50;;;3.15;;
20012;SDS011;10167;42.852;23.042;2024-01-25T01:22:18;6.00;;;1.40;;
20012;SDS011;10167;42.852;23.042;2024-01-25T01:24:47;0.57;;;0.57;;
20012;SDS011;10167;42.852;23.042;2024-01-25T01:27:17;1.25;;;1.23;;
20012;SDS011;10167;42.852;23.042;2024-01-25T01:29:51;0.57;;;0.57;;
20012;SDS011;10167;42.852;23.042;2024-01-25T01:32:20;1.83;;;1.73;;
20012;SDS011;10167;42.852;23.042;2024-01-25T01:34:49;2.83;;;1.27;;
20012;SDS011;10167;42.852;23.042;2024-01-25T01:37:22;2.05;;;0.60;;
20012;SDS011;10167;42.852;23.042;2024-01-25T01:39:53;0.30;;;0.30;;
20012;SDS011;10167;42.852;23.042;2024-01-25T01:42:23;0.32;;;0.32;;
20012;SDS011;10167;42.852;23.042;2024-01-25T01:44:53;9.93;;;1.27;;
20012;SDS011;10167;42.852;23.042;2024-01-25T01:47:23;0.30;;;0.30;;
20012;SDS011;10167;42.852;23.042;2024-01-25T01:49:52;2.00;;;0.52;;
20012;SDS011;10167;42.852;23.042;2024-01-25T01:52:24;0.30;;;0.30;;
20012;SDS011;10167;42.852;23.042;2024-01-25T01:54:54;1.83;;;1.27;;
20012;SDS011;10167;42.852;23.042;2024-01-25T01:57:24;1.38;;;0.85;;
20012;SDS011;10167;42.852;23.042;2024-01-25T01:59:55;0.35;;;0.35;;
20012;SDS011;10167;42.852;23.042;2024-01-25T02:02:37;0.70;;;0.70;;
20012;SDS011;10167;42.852;23.042;2024-01-25T02:05:08;1.17;;;1.08;;
20012;SDS011;10167;42.852;23.042;2024-01-25T02:07:39;1.65;;;1.27;;
20012;SDS011;10167;42.852;23.042;2024-01-25T02:10:09;0.73;;;0.73;;
20012;SDS011;10167;42.852;23.042;2024-01-25T02:12:39;0.32;;;0.32;;
20012;SDS011;10167;42.852;23.042;2024-01-25T02:27:37;1.25;;;0.93;;
20012;SDS011;10167;42.852;23.042;2024-01-25T02:30:07;1.45;;;1.00;;
20012;SDS011;10167;42.852;23.042;2024-01-25T02:32:37;2.10;;;1.05;;
20012;SDS011;10167;42.852;23.042;2024-01-25T02:35:07;0.30;;;0.30;;
20012;SDS011;10167;42.852;23.042;2024-01-25T02:37:37;0.75;;;0.75;;
20012;SDS011;10167;42.852;23.042;2024-01-25T02:40:11;0.52;;;0.52;;
20012;SDS011;10167;42.852;23.042;2024-01-25T02:42:43;0.20;;;0.20;;
20012;SDS011;10167;42.852;23.042;2024-01-25T02:45:17;0.57;;;0.40;;
20012;SDS011;10167;42.852;23.042;2024-01-25T02:47:46;0.57;;;0.55;;
20012;SDS011;10167;42.852;23.042;2024-01-25T02:50:17;0.20;;;0.20;;
20012;SDS011;10167;42.852;23.042;2024-01-25T02:52:48;6.03;;;1.20;;
20012;SDS011;10167;42.852;23.042;2024-01-25T02:55:19;14.32;;;0.85;;
20012;SDS011;10167;42.852;23.042;2024-01-25T02:57:50;0.57;;;0.57;;
20012;SDS011;10167;42.852;23.042;2024-01-25T03:00:20;2.72;;;1.20;;
20012;SDS011;10167;42.852;23.042;2024-01-25T03:02:53;1.17;;;1.00;;
20012;SDS011;10167;42.852;23.042;2024-01-25T03:05:23;0.73;;;0.38;;
20012;SDS011;10167;42.852;23.042;2024-01-25T03:07:53;0.40;;;0.40;;
20012;SDS011;10167;42.852;23.042;2024-01-25T03:10:23;0.85;;;0.85;;
20012;SDS011;10167;42.852;23.042;2024-01-25T03:12:54;0.85;;;0.47;;
20012;SDS011;10167;42.852;23.042;2024-01-25T03:15:24;0.95;;;0.95;;
20012;SDS011;10167;42.852;23.042;2024-01-25T03:17:54;1.40;;;0.60;;
20012;SDS011;10167;42.852;23.042;2024-01-25T03:20:24;3.70;;;0.75;;
20012;SDS011;10167;42.852;23.042;2024-01-25T03:22:55;0.25;;;0.25;;
20012;SDS011;10167;42.852;23.042;2024-01-25T03:25:24;5.82;;;3.00;;
20012;SDS011;10167;42.852;23.042;2024-01-25T03:27:59;1.20;;;1.20;;
20012;SDS011;10167;42.852;23.042;2024-01-25T03:30:28;0.22;;;0.22;;
20012;SDS011;10167;42.852;23.042;2024-01-25T03:32:58;2.97;;;0.70;;
20012;SDS011;10167;42.852;23.042;2024-01-25T03:35:28;0.30;;;0.30;;
20012;SDS011;10167;42.852;23.042;2024-01-25T03:37:57;3.75;;;0.50;;
20012;SDS011;10167;42.852;23.042;2024-01-25T03:40:26;3.20;;;1.10;;
20012;SDS011;10167;42.852;23.042;2024-01-25T03:42:59;4.15;;;0.60;;
20012;SDS011;10167;42.852;23.042;2024-01-25T03:45:45;2.67;;;2.35;;
20012;SDS011;10167;42.852;23.042;2024-01-25T03:48:14;8.25;;;4.70;;
20012;SDS011;10167;42.852;23.042;2024-01-25T03:50:44;3.65;;;3.35;;
20012;SDS011;10167;42.852;23.042;2024-01-25T03:53:13;8.88;;;3.05;;
20012;SDS011;10167;42.852;23.042;2024-01-25T03:55:48;37.08;;;9.30;;
20012;SDS011;10167;42.852;23.042;2024-01-25T03:58:20;10.68;;;6.97;;
20012;SDS011;10167;42.852;23.042;2024-01-25T04:00:49;5.63;;;4.78;;
20012;SDS011;10167;42.852;23.042;2024-01-25T04:03:19;4.88;;;1.80;;
20012;SDS011;10167;42.852;23.042;2024-01-25T04:05:49;12.15;;;4.45;;
20012;SDS011;10167;42.852;23.042;2024-01-25T04:08:20;5.20;;;3.83;;
20012;SDS011;10167;42.852;23.042;2024-01-25T04:10:49;11.82;;;5.65;;
20012;SDS011;10167;42.852;23.042;2024-01-25T04:13:21;11.88;;;5.43;;
20012;SDS011;10167;42.852;23.042;2024-01-25T04:15:51;18.45;;;3.42;;
20012;SDS011;10167;42.852;23.042;2024-01-25T04:18:21;7.53;;;4.70;;
20012;SDS011;10167;42.852;23.042;2024-01-25T04:20:51;2.55;;;2.08;;
20012;SDS011;10167;42.852;23.042;2024-01-25T04:23:20;34.35;;;7.72;;
20012;SDS011;10167;42.852;23.042;2024-01-25T04:25:49;7.90;;;4.30;;
20012;SDS011;10167;42.852;23.042;2024-01-25T04:28:19;3.33;;;2.22;;
20012;SDS011;10167;42.852;23.042;2024-01-25T04:30:51;1.80;;;1.52;;
20012;SDS011;10167;42.852;23.042;2024-01-25T04:33:21;10.40;;;3.97;;
20012;SDS011;10167;42.852;23.042;2024-01-25T04:35:51;1.90;;;1.58;;
20012;SDS011;10167;42.852;23.042;2024-01-25T04:38:21;16.85;;;4.75;;
20012;SDS011;10167;42.852;23.042;2024-01-25T04:40:53;10.32;;;3.42;;
20012;SDS011;10167;42.852;23.042;2024-01-25T04:43:25;3.35;;;2.92;;
20012;SDS011;10167;42.852;23.042;2024-01-25T04:45:55;7.05;;;3.08;;
20012;SDS011;10167;42.852;23.042;2024-01-25T04:48:28;3.75;;;2.55;;
20012;SDS011;10167;42.852;23.042;2024-01-25T04:50:59;28.85;;;7.10;;
20012;SDS011;10167;42.852;23.042;2024-01-25T04:53:28;5.15;;;4.35;;
20012;SDS011;10167;42.852;23.042;2024-01-25T04:55:58;26.65;;;7.82;;
20012;SDS011;10167;42.852;23.042;2024-01-25T04:58:29;12.07;;;5.88;;
20012;SDS011;10167;42.852;23.042;2024-01-25T05:01:01;18.33;;;4.68;;
20012;SDS011;10167;42.852;23.042;2024-01-25T05:03:31;6.32;;;3.50;;
20012;SDS011;10167;42.852;23.042;2024-01-25T05:06:00;18.58;;;4.32;;
20012;SDS011;10167;42.852;23.042;2024-01-25T05:08:32;8.85;;;5.20;;
20012;SDS011;10167;42.852;23.042;2024-01-25T05:11:04;6.10;;;3.47;;
20012;SDS011;10167;42.852;23.042;2024-01-25T05:13:35;3.72;;;2.10;;
20012;SDS011;10167;42.852;23.042;2024-01-25T05:16:05;4.90;;;2.38;;
20012;SDS011;10167;42.852;23.042;2024-01-25T05:21:09;8.15;;;4.93;;
20012;SDS011;10167;42.852;23.042;2024-01-25T05:23:39;4.93;;;4.00;;
20012;SDS011;10167;42.852;23.042;2024-01-25T05:26:08;6.93;;;4.18;;
20012;SDS011;10167;42.852;23.042;2024-01-25T05:28:40;22.17;;;3.22;;
20012;SDS011;10167;42.852;23.042;2024-01-25T05:31:08;0.75;;;0.68;;
20012;SDS011;10167;42.852;23.042;2024-01-25T05:33:40;6.68;;;3.25;;
20012;SDS011;10167;42.852;23.042;2024-01-25T05:36:11;6.28;;;2.03;;
20012;SDS011;10167;42.852;23.042;2024-01-25T05:38:41;2.05;;;1.95;;
20012;SDS011;10167;42.852;23.042;2024-01-25T05:41:10;1.65;;;0.90;;
20012;SDS011;10167;42.852;23.042;2024-01-25T05:43:43;1.90;;;1.80;;
20012;SDS011;10167;42.852;23.042;2024-01-25T05:48:42;2.47;;;1.52;;
20012;SDS011;10167;42.852;23.042;2024-01-25T05:51:16;10.23;;;1.60;;
20012;SDS011;10167;42.852;23.042;2024-01-25T05:53:45;1.17;;;0.68;;
20012;SDS011;10167;42.852;23.042;2024-01-25T05:56:16;15.20;;;6.22;;
20012;SDS011;10167;42.852;23.042;2024-01-25T05:58:47;1.25;;;0.88;;
20012;SDS011;10167;42.852;23.042;2024-01-25T06:01:17;3.65;;;1.92;;
20012;SDS011;10167;42.852;23.042;2024-01-25T06:03:49;1.33;;;1.23;;
20012;SDS011;10167;42.852;23.042;2024-01-25T06:06:18;2.28;;;0.60;;
20012;SDS011;10167;42.852;23.042;2024-01-25T06:11:37;1.33;;;1.23;;
20012;SDS011;10167;42.852;23.042;2024-01-25T06:14:09;0.65;;;0.65;;
20012;SDS011;10167;42.852;23.042;2024-01-25T06:16:39;1.48;;;1.38;;
20012;SDS011;10167;42.852;23.042;2024-01-25T06:19:11;1.52;;;1.42;;
20012;SDS011;10167;42.852;23.042;2024-01-25T06:21:40;1.20;;;1.00;;
20012;SDS011;10167;42.852;23.042;2024-01-25T06:24:09;9.07;;;1.92;;
20012;SDS011;10167;42.852;23.042;2024-01-25T06:26:40;0.75;;;0.75;;
20012;SDS011;10167;42.852;23.042;2024-01-25T06:29:11;6.10;;;1.48;;
20012;SDS011;10167;42.852;23.042;2024-01-25T06:31:41;6.25;;;2.13;;
20012;SDS011;10167;42.852;23.042;2024-01-25T06:34:11;1.70;;;1.55;;
20012;SDS011;10167;42.852;23.042;2024-01-25T06:36:43;2.15;;;1.95;;
20012;SDS011;10167;42.852;23.042;2024-01-25T06:39:14;0.65;;;0.63;;
20012;SDS011;10167;42.852;23.042;2024-01-25T06:41:43;2.28;;;0.80;;
20012;SDS011;10167;42.852;23.042;2024-01-25T06:44:17;0.80;;;0.80;;
20012;SDS011;10167;42.852;23.042;2024-01-25T06:46:46;0.55;;;0.55;;
20012;SDS011;10167;42.852;23.042;2024-01-25T06:49:16;0.65;;;0.65;;
20012;SDS011;10167;42.852;23.042;2024-01-25T06:51:48;4.20;;;1.47;;
20012;SDS011;10167;42.852;23.042;2024-01-25T06:54:17;0.85;;;0.77;;
20012;SDS011;10167;42.852;23.042;2024-01-25T06:56:47;1.33;;;1.23;;
20012;SDS011;10167;42.852;23.042;2024-01-25T06:59:20;0.83;;;0.83;;
20012;SDS011;10167;42.852;23.042;2024-01-25T07:01:51;3.83;;;1.52;;
20012;SDS011;10167;42.852;23.042;2024-01-25T07:04:21;2.80;;;1.40;;
20012;SDS011;10167;42.852;23.042;2024-01-25T07:06:53;0.80;;;0.63;;
20012;SDS011;10167;42.852;23.042;2024-01-25T07:09:23;3.65;;;2.42;;
20012;SDS011;10167;42.852;23.042;2024-01-25T07:11:53;2.05;;;1.30;;
20012;SDS011;10167;42.852;23.042;2024-01-25T07:14:24;2.53;;;1.80;;
20012;SDS011;10167;42.852;23.042;2024-01-25T07:16:54;4.75;;;1.90;;
20012;SDS011;10167;42.852;23.042;2024-01-25T07:19:23;2.28;;;2.05;;
20012;SDS011;10167;42.852;23.042;2024-01-25T07:21:53;3.60;;;3.20;;
20012;SDS011;10167;42.852;23.042;2024-01-25T07:24:23;5.68;;;2.97;;
20012;SDS011;10167;42.852;23.042;2024-01-25T07:26:53;8.65;;;4.63;;
20012;SDS011;10167;42.852;23.042;2024-01-25T07:29:26;3.83;;;3.53;;
20012;SDS011;10167;42.852;23.042;2024-01-25T07:31:56;6.72;;;3.20;;
20012;SDS011;10167;42.852;23.042;2024-01-25T07:34:26;5.07;;;2.15;;
20012;SDS011;10167;42.852;23.042;2024-01-25T07:36:55;2.80;;;2.13;;
20012;SDS011;10167;42.852;23.042;2024-01-25T07:41:57;3.90;;;3.60;;
20012;SDS011;10167;42.852;23.042;2024-01-25T07:44:29;4.90;;;2.88;;
20012;SDS011;10167;42.852;23.042;2024-01-25T07:46:58;7.40;;;4.90;;
20012;SDS011;10167;42.852;23.042;2024-01-25T07:49:28;13.00;;;5.10;;
20012;SDS011;10167;42.852;23.042;2024-01-25T07:51:59;5.30;;;4.78;;
20012;SDS011;10167;42.852;23.042;2024-01-25T07:54:29;3.65;;;2.90;;
20012;SDS011;10167;42.852;23.042;2024-01-25T07:56:58;9.02;;;4.30;;
20012;SDS011;10167;42.852;23.042;2024-01-25T07:59:29;8.80;;;3.33;;
20012;SDS011;10167;42.852;23.042;2024-01-25T08:01:59;9.38;;;6.05;;
20012;SDS011;10167;42.852;23.042;2024-01-25T08:04:29;5.53;;;4.32;;
20012;SDS011;10167;42.852;23.042;2024-01-25T08:06:59;2.35;;;1.67;;
20012;SDS011;10167;42.852;23.042;2024-01-25T08:09:30;1.23;;;1.17;;
20012;SDS011;10167;42.852;23.042;2024-01-25T08:12:01;1.08;;;0.93;;
20012;SDS011;10167;42.852;23.042;2024-01-25T08:14:32;3.45;;;2.15;;
20012;SDS011;10167;42.852;23.042;2024-01-25T08:17:02;5.20;;;3.08;;
20012;SDS011;10167;42.852;23.042;2024-01-25T08:19:34;2.58;;;1.33;;
20012;SDS011;10167;42.852;23.042;2024-01-25T08:22:04;0.88;;;0.88;;
20012;SDS011;10167;42.852;23.042;2024-01-25T08:24:33;0.77;;;0.68;;
20012;SDS011;10167;42.852;23.042;2024-01-25T08:27:03;1.25;;;1.17;;
20012;SDS011;10167;42.852;23.042;2024-01-25T08:29:40;1.73;;;1.30;;
20012;SDS011;10167;42.852;23.042;2024-01-25T08:32:09;6.15;;;1.23;;
20012;SDS011;10167;42.852;23.042;2024-01-25T08:34:39;11.80;;;2.33;;
20012;SDS011;10167;42.852;23.042;2024-01-25T08:37:09;3.70;;;2.22;;
20012;SDS011;10167;42.852;23.042;2024-01-25T08:39:40;1.13;;;1.10;;
20012;SDS011;10167;42.852;23.042;2024-01-25T08:42:10;2.00;;;1.80;;
20012;SDS011;10167;42.852;23.042;2024-01-25T08:45:01;0.70;;;0.60;;
20012;SDS011;10167;42.852;23.042;2024-01-25T08:47:51;2.50;;;1.15;;
20012;SDS011;10167;42.852;23.042;2024-01-25T08:50:23;2.13;;;1.93;;
20012;SDS011;10167;42.852;23.042;2024-01-25T08:52:54;2.13;;;1.63;;
20012;SDS011;10167;42.852;23.042;2024-01-25T08:55:24;1.27;;;1.17;;
20012;SDS011;10167;42.852;23.042;2024-01-25T08:57:54;1.70;;;0.57;;
20012;SDS011;10167;42.852;23.042;2024-01-25T09:00:25;4.57;;;1.17;;
20012;SDS011;10167;42.852;23.042;2024-01-25T09:02:55;1.60;;;1.40;;
20012;SDS011;10167;42.852;23.042;2024-01-25T09:05:25;3.08;;;2.15;;
20012;SDS011;10167;42.852;23.042;2024-01-25T09:07:55;2.92;;;1.75;;
20012;SDS011;10167;42.852;23.042;2024-01-25T09:10:26;9.07;;;1.95;;
20012;SDS011;10167;42.852;23.042;2024-01-25T09:12:56;2.63;;;1.40;;
20012;SDS011;10167;42.852;23.042;2024-01-25T09:15:27;2.08;;;1.58;;
20012;SDS011;10167;42.852;23.042;2024-01-25T09:17:58;2.53;;;2.33;;
20012;SDS011;10167;42.852;23.042;2024-01-25T09:20:30;1.10;;;1.00;;
20012;SDS011;10167;42.852;23.042;2024-01-25T09:23:00;2.25;;;1.42;;
20012;SDS011;10167;42.852;23.042;2024-01-25T09:25:30;4.38;;;1.80;;
20012;SDS011;10167;42.852;23.042;2024-01-25T09:28:02;3.15;;;2.08;;
20012;SDS011;10167;42.852;23.042;2024-01-25T09:30:34;10.77;;;3.03;;
20012;SDS011;10167;42.852;23.042;2024-01-25T09:33:03;4.03;;;1.73;;
20012;SDS011;10167;42.852;23.042;2024-01-25T09:35:34;3.05;;;2.08;;
20012;SDS011;10167;42.852;23.042;2024-01-25T09:38:04;1.75;;;1.63;;
20012;SDS011;10167;42.852;23.042;2024-01-25T09:40:33;12.80;;;3.17;;
20012;SDS011;10167;42.852;23.042;2024-01-25T09:43:04;2.28;;;1.35;;
20012;SDS011;10167;42.852;23.042;2024-01-25T09:45:37;6.45;;;1.65;;
20012;SDS011;10167;42.852;23.042;2024-01-25T09:48:09;1.23;;;0.93;;
20012;SDS011;10167;42.852;23.042;2024-01-25T09:50:40;1.38;;;1.05;;
20012;SDS011;10167;42.852;23.042;2024-01-25T09:53:12;4.78;;;1.65;;
20012;SDS011;10167;42.852;23.042;2024-01-25T09:55:53;1.48;;;0.90;;
20012;SDS011;10167;42.852;23.042;2024-01-25T09:58:29;3.40;;;1.35;;
20012;SDS011;10167;42.852;23.042;2024-01-25T10:01:09;9.27;;;3.08;;
20012;SDS011;10167;42.852;23.042;2024-01-25T10:03:41;11.38;;;4.40;;
20012;SDS011;10167;42.852;23.042;2024-01-25T10:06:12;3.90;;;2.45;;
20012;SDS011;10167;42.852;23.042;2024-01-25T10:08:44;1.05;;;0.88;;
20012;SDS011;10167;42.852;23.042;2024-01-25T10:11:14;2.10;;;1.13;;
20012;SDS011;10167;42.852;23.042;2024-01-25T10:13:44;3.78;;;1.83;;
20012;SDS011;10167;42.852;23.042;2024-01-25T10:16:17;2.05;;;0.95;;
20012;SDS011;10167;42.852;23.042;2024-01-25T10:18:48;1.25;;;1.17;;
20012;SDS011;10167;42.852;23.042;2024-01-25T10:21:23;0.40;;;0.40;;
20012;SDS011;10167;42.852;23.042;2024-01-25T10:23:55;3.15;;;2.28;;
20012;SDS011;10167;42.852;23.042;2024-01-25T10:26:26;1.65;;;1.23;;
20012;SDS011;10167;42.852;23.042;2024-01-25T10:31:32;0.50;;;0.50;;
20012;SDS011;10167;42.852;23.042;2024-01-25T10:34:10;2.17;;;1.40;;
20012;SDS011;10167;42.852;23.042;2024-01-25T10:36:45;1.38;;;1.00;;
20012;SDS011;10167;42.852;23.042;2024-01-25T10:39:17;0.47;;;0.45;;
20012;SDS011;10167;42.852;23.042;2024-01-25T10:41:50;0.38;;;0.38;;
20012;SDS011;10167;42.852;23.042;2024-01-25T10:44:22;2.90;;;0.97;;
20012;SDS011;10167;42.852;23.042;2024-01-25T10:46:54;0.40;;;0.40;;
20012;SDS011;10167;42.852;23.042;2024-01-25T10:49:24;1.03;;;0.87;;
20012;SDS011;10167;42.852;23.042;2024-01-25T10:51:54;3.10;;;1.05;;
20012;SDS011;10167;42.852;23.042;2024-01-25T10:54:25;4.93;;;1.98;;
20012;SDS011;10167;42.852;23.042;2024-01-25T10:56:55;0.52;;;0.52;;
20012;SDS011;10167;42.852;23.042;2024-01-25T10:59:27;1.17;;;0.63;;
20012;SDS011;10167;42.852;23.042;2024-01-25T11:02:00;0.95;;;0.73;;
20012;SDS011;10167;42.852;23.042;2024-01-25T11:04:30;0.98;;;0.77;;
20012;SDS011;10167;42.852;23.042;2024-01-25T11:07:04;1.15;;;1.15;;
20012;SDS011;10167;42.852;23.042;2024-01-25T11:09:36;1.27;;;0.93;;
20012;SDS011;10167;42.852;23.042;2024-01-25T11:12:11;2.40;;;0.77;;
20012;SDS011;10167;42.852;23.042;2024-01-25T11:14:41;1.38;;;1.23;;
20012;SDS011;10167;42.852;23.042;2024-01-25T11:17:16;1.90;;;1.20;;
20012;SDS011;10167;42.852;23.042;2024-01-25T11:19:48;1.85;;;1.00;;
20012;SDS011;10167;42.852;23.042;2024-01-25T11:22:20;0.52;;;0.52;;
20012;SDS011;10167;42.852;23.042;2024-01-25T11:24:52;0.47;;;0.47;;
20012;SDS011;10167;42.852;23.042;2024-01-25T11:27:23;1.25;;;0.80;;
20012;SDS011;10167;42.852;23.042;2024-01-25T11:29:53;2.10;;;1.08;;
20012;SDS011;10167;42.852;23.042;2024-01-25T11:32:25;2.47;;;1.17;;
20012;SDS011;10167;42.852;23.042;2024-01-25T11:34:57;1.67;;;1.33;;
20012;SDS011;10167;42.852;23.042;2024-01-25T11:37:30;3.25;;;1.77;;
20012;SDS011;10167;42.852;23.042;2024-01-25T11:40:00;4.70;;;1.67;;
20012;SDS011;10167;42.852;23.042;2024-01-25T11:42:29;4.18;;;2.60;;
20012;SDS011;10167;42.852;23.042;2024-01-25T11:44:59;7.22;;;3.20;;
20012;SDS011;10167;42.852;23.042;2024-01-25T11:47:32;1.23;;;1.02;;
20012;SDS011;10167;42.852;23.042;2024-01-25T11:50:03;0.85;;;0.85;;
20012;SDS011;10167;42.852;23.042;2024-01-25T11:52:35;3.13;;;1.67;;
20012;SDS011;10167;42.852;23.042;2024-01-25T11:55:06;1.50;;;1.40;;
20012;SDS011;10167;42.852;23.042;2024-01-25T11:57:38;6.93;;;1.48;;
20012;SDS011;10167;42.852;23.042;2024-01-25T12:00:12;0.25;;;0.25;;
20012;SDS011;10167;42.852;23.042;2024-01-25T12:02:47;1.30;;;1.02;;
20012;SDS011;10167;42.852;23.042;2024-01-25T12:05:16;3.22;;;1.75;;
20012;SDS011;10167;42.852;23.042;2024-01-25T12:07:46;7.88;;;1.27;;
20012;SDS011;10167;42.852;23.042;2024-01-25T12:10:16;5.57;;;1.05;;
20012;SDS011;10167;42.852;23.042;2024-01-25T12:12:47;1.92;;;1.23;;
20012;SDS011;10167;42.852;23.042;2024-01-25T12:15:17;1.92;;;0.88;;
20012;SDS011;10167;42.852;23.042;2024-01-25T12:17:49;0.95;;;0.77;;
20012;SDS011;10167;42.852;23.042;2024-01-25T12:20:20;0.20;;;0.20;;
20012;SDS011;10167;42.852;23.042;2024-01-25T12:22:50;4.63;;;1.55;;
20012;SDS011;10167;42.852;23.042;2024-01-25T12:25:20;0.98;;;0.63;;
20012;SDS011;10167;42.852;23.042;2024-01-25T12:27:50;0.60;;;0.60;;
20012;SDS011;10167;42.852;23.042;2024-01-25T12:30:20;1.23;;;0.57;;
20012;SDS011;10167;42.852;23.042;2024-01-25T12:32:51;2.08;;;1.10;;
20012;SDS011;10167;42.852;23.042;2024-01-25T12:35:21;1.17;;;0.85;;
20012;SDS011;10167;42.852;23.042;2024-01-25T12:37:51;0.22;;;0.22;;
20012;SDS011;10167;42.852;23.042;2024-01-25T12:40:21;0.30;;;0.30;;
20012;SDS011;10167;42.852;23.042;2024-01-25T12:42:51;2.50;;;1.65;;
20012;SDS011;10167;42.852;23.042;2024-01-25T12:45:21;1.85;;;0.95;;
20012;SDS011;10167;42.852;23.042;2024-01-25T12:47:52;0.40;;;0.40;;
20012;SDS011;10167;42.852;23.042;2024-01-25T12:50:22;13.77;;;1.33;;
20012;SDS011;10167;42.852;23.042;2024-01-25T12:52:52;5.35;;;1.77;;
20012;SDS011;10167;42.852;23.042;2024-01-25T12:55:23;0.85;;;0.40;;
20012;SDS011;10167;42.852;23.042;2024-01-25T12:57:52;0.43;;;0.43;;
20012;SDS011;10167;42.852;23.042;2024-01-25T13:00:24;0.60;;;0.60;;
20012;SDS011;10167;42.852;23.042;2024-01-25T13:02:56;0.40;;;0.40;;
20012;SDS011;10167;42.852;23.042;2024-01-25T13:05:29;1.10;;;0.70;;
20012;SDS011;10167;42.852;23.042;2024-01-25T13:08:02;0.93;;;0.85;;
20012;SDS011;10167;42.852;23.042;2024-01-25T13:10:32;0.38;;;0.38;;
20012;SDS011;10167;42.852;23.042;2024-01-25T13:13:02;0.52;;;0.50;;
20012;SDS011;10167;42.852;23.042;2024-01-25T13:15:32;0.30;;;0.30;;
20012;SDS011;10167;42.852;23.042;2024-01-25T13:18:04;0.68;;;0.68;;
20012;SDS011;10167;42.852;23.042;2024-01-25T13:20:34;1.17;;;0.85;;
20012;SDS011;10167;42.852;23.042;2024-01-25T13:23:03;0.30;;;0.30;;
20012;SDS011;10167;42.852;23.042;2024-01-25T13:25:34;1.13;;;0.40;;
20012;SDS011;10167;42.852;23.042;2024-01-25T13:28:05;0.22;;;0.22;;
20012;SDS011;10167;42.852;23.042;2024-01-25T13:30:36;1.30;;;1.02;;
20012;SDS011;10167;42.852;23.042;2024-01-25T13:33:07;2.20;;;0.55;;
20012;SDS011;10167;42.852;23.042;2024-01-25T13:35:37;1.02;;;0.63;;
20012;SDS011;10167;42.852;23.042;2024-01-25T13:38:06;0.55;;;0.55;;
20012;SDS011;10167;42.852;23.042;2024-01-25T13:40:37;0.95;;;0.90;;
20012;SDS011;10167;42.852;23.042;2024-01-25T13:43:07;0.32;;;0.32;;
20012;SDS011;10167;42.852;23.042;2024-01-25T13:45:37;9.68;;;1.63;;
20012;SDS011;10167;42.852;23.042;2024-01-25T13:48:09;0.93;;;0.60;;
20012;SDS011;10167;42.852;23.042;2024-01-25T13:50:39;0.93;;;0.50;;
20012;SDS011;10167;42.852;23.042;2024-01-25T13:53:09;4.18;;;1.58;;
20012;SDS011;10167;42.852;23.042;2024-01-25T13:55:39;0.45;;;0.35;;
20012;SDS011;10167;42.852;23.042;2024-01-25T13:58:09;0.30;;;0.30;;
20012;SDS011;10167;42.852;23.042;2024-01-25T14:00:39;1.33;;;0.93;;
20012;SDS011;10167;42.852;23.042;2024-01-25T14:03:10;0.50;;;0.50;;
20012;SDS011;10167;42.852;23.042;2024-01-25T14:05:40;0.45;;;0.45;;
20012;SDS011;10167;42.852;23.042;2024-01-25T14:08:10;0.35;;;0.35;;
20012;SDS011;10167;42.852;23.042;2024-01-25T14:10:40;1.35;;;0.68;;
20012;SDS011;10167;42.852;23.042;2024-01-25T14:13:10;0.73;;;0.73;;
20012;SDS011;10167;42.852;23.042;2024-01-25T14:15:40;8.85;;;1.35;;
20012;SDS011;10167;42.852;23.042;2024-01-25T14:18:12;0.68;;;0.40;;
20012;SDS011;10167;42.852;23.042;2024-01-25T14:20:43;0.80;;;0.57;;
20012;SDS011;10167;42.852;23.042;2024-01-25T14:23:12;0.90;;;0.80;;
20012;SDS011;10167;42.852;23.042;2024-01-25T14:25:43;3.30;;;1.77;;
20012;SDS011;10167;42.852;23.042;2024-01-25T14:28:13;1.70;;;1.52;;
20012;SDS011;10167;42.852;23.042;2024-01-25T14:30:44;0.90;;;0.90;;
20012;SDS011;10167;42.852;23.042;2024-01-25T14:33:15;3.42;;;1.10;;
20012;SDS011;10167;42.852;23.042;2024-01-25T14:35:45;1.20;;;0.88;;
20012;SDS011;10167;42.852;23.042;2024-01-25T14:38:16;2.60;;;1.75;;
20012;SDS011;10167;42.852;23.042;2024-01-25T14:40:46;0.75;;;0.75;;
20012;SDS011;10167;42.852;23.042;2024-01-25T14:43:29;1.63;;;1.15;;
20012;SDS011;10167;42.852;23.042;2024-01-25T14:45:59;0.90;;;0.68;;
20012;SDS011;10167;42.852;23.042;2024-01-25T14:48:30;0.75;;;0.45;;
20012;SDS011;10167;42.852;23.042;2024-01-25T14:51:01;2.73;;;1.93;;
20012;SDS011;10167;42.852;23.042;2024-01-25T14:53:31;1.45;;;1.30;;
20012;SDS011;10167;42.852;23.042;2024-01-25T14:56:01;0.50;;;0.50;;
20012;SDS011;10167;42.852;23.042;2024-01-25T14:58:31;1.30;;;0.90;;
20012;SDS011;10167;42.852;23.042;2024-01-25T15:01:01;2.40;;;1.23;;
20012;SDS011;10167;42.852;23.042;2024-01-25T15:03:33;1.00;;;0.80;;
20012;SDS011;10167;42.852;23.042;2024-01-25T15:06:02;2.10;;;1.67;;
20012;SDS011;10167;42.852;23.042;2024-01-25T15:08:33;5.65;;;3.30;;
20012;SDS011;10167;42.852;23.042;2024-01-25T15:11:02;6.35;;;1.52;;
20012;SDS011;10167;42.852;23.042;2024-01-25T15:13:33;2.58;;;1.83;;
20012;SDS011;10167;42.852;23.042;2024-01-25T15:16:02;0.88;;;0.80;;
20012;SDS011;10167;42.852;23.042;2024-01-25T15:18:34;1.02;;;1.02;;
20012;SDS011;10167;42.852;23.042;2024-01-25T15:21:04;3.80;;;2.95;;